Echapora, Brazil
Current Conditions -  °F | °C
As of 4:00 PM on Saturday 20 Dec 2014 (Local Time) from SBBU Reporting Station
Scattered Clouds Scattered Clouds  
Wind Chill: 88°   Ceiling: Unl
Heat Index: 100°   Visibility: 6mi
Dew Point: 77°   Wind: 8mph
Humidity: 70%   Direction: 50°NE
Pressure: 29.83"   Gusts: NA
Location:  22.43°S, 50.2°W
Report Text: SBBU 201800Z 05007KT 9999 SCT035 31/25 Q1010
Loading
Personal Weather Stations






























Interactive Weather Map New forecast layout! Learn more

10-Day Weather Forecast

Advertisements
Track Severe Weather on mobile